sensor_id;sensor_type;location;lat;lon;timestamp;temperature;humidity
26655;DHT22;14278;50.784;4.630;2023-07-28T00:02:06;19.00;99.90
26655;DHT22;14278;50.784;4.630;2023-07-28T00:04:35;18.90;99.90
26655;DHT22;14278;50.784;4.630;2023-07-28T00:07:01;19.00;99.90
26655;DHT22;14278;50.784;4.630;2023-07-28T00:09:26;19.20;99.90
26655;DHT22;14278;50.784;4.630;2023-07-28T00:11:52;19.00;99.90
26655;DHT22;14278;50.784;4.630;2023-07-28T00:14:19;19.00;99.90
26655;DHT22;14278;50.784;4.630;2023-07-28T00:16:44;18.90;99.90
26655;DHT22;14278;50.784;4.630;2023-07-28T00:19:10;18.80;99.90
26655;DHT22;14278;50.784;4.630;2023-07-28T00:21:37;18.90;99.90
26655;DHT22;14278;50.784;4.630;2023-07-28T00:24:03;18.90;99.90
26655;DHT22;14278;50.784;4.630;2023-07-28T00:26:29;19.00;99.90
26655;DHT22;14278;50.784;4.630;2023-07-28T00:28:55;19.30;99.90
26655;DHT22;14278;50.784;4.630;2023-07-28T00:31:21;19.30;99.90
26655;DHT22;14278;50.784;4.630;2023-07-28T00:33:46;19.20;99.90
26655;DHT22;14278;50.784;4.630;2023-07-28T00:36:12;19.20;99.90
26655;DHT22;14278;50.784;4.630;2023-07-28T00:38:38;19.10;99.90
26655;DHT22;14278;50.784;4.630;2023-07-28T00:41:04;19.00;99.90
26655;DHT22;14278;50.784;4.630;2023-07-28T00:43:29;19.00;99.90
26655;DHT22;14278;50.784;4.630;2023-07-28T00:45:55;19.10;99.90
26655;DHT22;14278;50.784;4.630;2023-07-28T00:48:21;19.10;99.90
26655;DHT22;14278;50.784;4.630;2023-07-28T00:50:49;19.00;99.90
26655;DHT22;14278;50.784;4.630;2023-07-28T00:53:16;19.00;99.90
26655;DHT22;14278;50.784;4.630;2023-07-28T00:55:42;19.30;99.90
26655;DHT22;14278;50.784;4.630;2023-07-28T00:58:11;19.00;99.90
26655;DHT22;14278;50.784;4.630;2023-07-28T01:00:37;19.00;99.90
26655;DHT22;14278;50.784;4.630;2023-07-28T01:03:03;19.10;99.90
26655;DHT22;14278;50.784;4.630;2023-07-28T01:05:39;19.20;99.90
26655;DHT22;14278;50.784;4.630;2023-07-28T01:11:09;19.10;99.90
26655;DHT22;14278;50.784;4.630;2023-07-28T01:13:35;19.50;99.90
26655;DHT22;14278;50.784;4.630;2023-07-28T01:16:01;19.30;99.90
26655;DHT22;14278;50.784;4.630;2023-07-28T01:18:27;19.40;99.90
26655;DHT22;14278;50.784;4.630;2023-07-28T01:20:56;19.40;99.90
26655;DHT22;14278;50.784;4.630;2023-07-28T01:23:48;19.40;99.90
26655;DHT22;14278;50.784;4.630;2023-07-28T01:26:51;19.40;99.90
26655;DHT22;14278;50.784;4.630;2023-07-28T01:29:11;19.50;99.90
26655;DHT22;14278;50.784;4.630;2023-07-28T01:31:39;19.30;99.90
26655;DHT22;14278;50.784;4.630;2023-07-28T01:34:05;19.30;99.90
26655;DHT22;14278;50.784;4.630;2023-07-28T01:36:30;19.30;99.90
26655;DHT22;14278;50.784;4.630;2023-07-28T01:38:57;19.20;99.90
26655;DHT22;14278;50.784;4.630;2023-07-28T01:41:22;19.30;99.90
26655;DHT22;14278;50.784;4.630;2023-07-28T01:43:48;19.40;99.90
26655;DHT22;14278;50.784;4.630;2023-07-28T01:46:14;19.30;99.90
26655;DHT22;14278;50.784;4.630;2023-07-28T01:48:40;19.40;99.90
26655;DHT22;14278;50.784;4.630;2023-07-28T01:51:06;19.40;99.90
26655;DHT22;14278;50.784;4.630;2023-07-28T01:53:32;19.40;99.90
26655;DHT22;14278;50.784;4.630;2023-07-28T01:56:00;19.10;99.90
26655;DHT22;14278;50.784;4.630;2023-07-28T01:58:26;19.30;99.90
26655;DHT22;14278;50.784;4.630;2023-07-28T02:00:52;19.30;99.90
26655;DHT22;14278;50.784;4.630;2023-07-28T02:03:18;19.50;99.90
26655;DHT22;14278;50.784;4.630;2023-07-28T02:05:44;19.30;99.90
26655;DHT22;14278;50.784;4.630;2023-07-28T02:08:10;19.20;99.90
26655;DHT22;14278;50.784;4.630;2023-07-28T02:10:36;19.00;99.90
26655;DHT22;14278;50.784;4.630;2023-07-28T02:13:01;19.20;99.90
26655;DHT22;14278;50.784;4.630;2023-07-28T02:15:27;19.40;99.90
26655;DHT22;14278;50.784;4.630;2023-07-28T02:17:53;19.40;99.90
26655;DHT22;14278;50.784;4.630;2023-07-28T02:20:19;19.50;99.90
26655;DHT22;14278;50.784;4.630;2023-07-28T02:22:45;19.40;99.90
26655;DHT22;14278;50.784;4.630;2023-07-28T02:25:10;19.20;99.90
26655;DHT22;14278;50.784;4.630;2023-07-28T02:27:37;19.40;99.90
26655;DHT22;14278;50.784;4.630;2023-07-28T02:30:04;19.50;99.90
26655;DHT22;14278;50.784;4.630;2023-07-28T02:32:30;19.50;99.90
26655;DHT22;14278;50.784;4.630;2023-07-28T02:34:56;19.80;99.90
26655;DHT22;14278;50.784;4.630;2023-07-28T02:37:22;19.50;99.90
26655;DHT22;14278;50.784;4.630;2023-07-28T02:39:48;19.50;99.90
26655;DHT22;14278;50.784;4.630;2023-07-28T02:42:14;19.50;99.90
26655;DHT22;14278;50.784;4.630;2023-07-28T02:44:40;19.40;99.90
26655;DHT22;14278;50.784;4.630;2023-07-28T02:47:06;19.50;99.90
26655;DHT22;14278;50.784;4.630;2023-07-28T02:49:31;19.50;99.90
26655;DHT22;14278;50.784;4.630;2023-07-28T02:51:58;19.30;99.90
26655;DHT22;14278;50.784;4.630;2023-07-28T02:54:24;19.60;99.90
26655;DHT22;14278;50.784;4.630;2023-07-28T02:56:51;19.40;99.90
26655;DHT22;14278;50.784;4.630;2023-07-28T02:59:17;19.30;99.90
26655;DHT22;14278;50.784;4.630;2023-07-28T03:01:42;19.40;99.90
26655;DHT22;14278;50.784;4.630;2023-07-28T03:04:09;19.30;99.90
26655;DHT22;14278;50.784;4.630;2023-07-28T03:06:34;19.40;99.90
26655;DHT22;14278;50.784;4.630;2023-07-28T03:09:00;19.40;99.90
26655;DHT22;14278;50.784;4.630;2023-07-28T03:11:26;19.40;99.90
26655;DHT22;14278;50.784;4.630;2023-07-28T03:13:52;19.40;99.90
26655;DHT22;14278;50.784;4.630;2023-07-28T03:16:18;19.30;99.90
26655;DHT22;14278;50.784;4.630;2023-07-28T03:18:44;19.20;99.90
26655;DHT22;14278;50.784;4.630;2023-07-28T03:21:10;19.20;99.90
26655;DHT22;14278;50.784;4.630;2023-07-28T03:23:36;19.10;99.90
26655;DHT22;14278;50.784;4.630;2023-07-28T03:26:01;19.10;99.90
26655;DHT22;14278;50.784;4.630;2023-07-28T03:28:28;19.00;99.90
26655;DHT22;14278;50.784;4.630;2023-07-28T03:30:54;19.00;99.90
26655;DHT22;14278;50.784;4.630;2023-07-28T03:33:20;19.00;99.90
26655;DHT22;14278;50.784;4.630;2023-07-28T03:35:45;19.10;99.90
26655;DHT22;14278;50.784;4.630;2023-07-28T03:38:11;19.10;99.90
26655;DHT22;14278;50.784;4.630;2023-07-28T03:40:37;19.20;99.90
26655;DHT22;14278;50.784;4.630;2023-07-28T03:43:03;19.10;99.90
26655;DHT22;14278;50.784;4.630;2023-07-28T03:45:29;19.20;99.90
26655;DHT22;14278;50.784;4.630;2023-07-28T03:47:55;19.10;99.90
26655;DHT22;14278;50.784;4.630;2023-07-28T03:50:21;19.20;99.90
26655;DHT22;14278;50.784;4.630;2023-07-28T03:52:47;19.30;99.90
26655;DHT22;14278;50.784;4.630;2023-07-28T03:55:13;19.50;99.90
26655;DHT22;14278;50.784;4.630;2023-07-28T03:57:39;19.60;99.90
26655;DHT22;14278;50.784;4.630;2023-07-28T04:00:05;19.40;99.90
26655;DHT22;14278;50.784;4.630;2023-07-28T04:02:31;19.30;99.90
26655;DHT22;14278;50.784;4.630;2023-07-28T04:04:58;19.30;99.90
26655;DHT22;14278;50.784;4.630;2023-07-28T04:07:24;19.40;99.90
26655;DHT22;14278;50.784;4.630;2023-07-28T04:09:49;19.50;99.90
26655;DHT22;14278;50.784;4.630;2023-07-28T04:12:15;19.40;99.90
26655;DHT22;14278;50.784;4.630;2023-07-28T04:14:41;19.40;99.90
26655;DHT22;14278;50.784;4.630;2023-07-28T04:17:08;19.40;99.90
26655;DHT22;14278;50.784;4.630;2023-07-28T04:19:33;19.50;99.90
26655;DHT22;14278;50.784;4.630;2023-07-28T04:22:00;19.60;99.90
26655;DHT22;14278;50.784;4.630;2023-07-28T04:24:26;19.60;99.90
26655;DHT22;14278;50.784;4.630;2023-07-28T04:26:52;19.60;99.90
26655;DHT22;14278;50.784;4.630;2023-07-28T04:29:18;19.50;99.90
26655;DHT22;14278;50.784;4.630;2023-07-28T04:31:44;19.50;99.90
26655;DHT22;14278;50.784;4.630;2023-07-28T04:34:10;19.60;99.90
26655;DHT22;14278;50.784;4.630;2023-07-28T04:36:36;19.60;99.90
26655;DHT22;14278;50.784;4.630;2023-07-28T04:39:02;19.50;99.90
26655;DHT22;14278;50.784;4.630;2023-07-28T04:41:28;19.40;99.90
26655;DHT22;14278;50.784;4.630;2023-07-28T04:43:54;19.40;99.90
26655;DHT22;14278;50.784;4.630;2023-07-28T04:46:20;19.70;99.90
26655;DHT22;14278;50.784;4.630;2023-07-28T04:48:46;20.00;99.90
26655;DHT22;14278;50.784;4.630;2023-07-28T04:51:12;19.80;99.90
26655;DHT22;14278;50.784;4.630;2023-07-28T04:53:38;19.60;99.90
26655;DHT22;14278;50.784;4.630;2023-07-28T04:56:04;19.60;99.90
26655;DHT22;14278;50.784;4.630;2023-07-28T04:58:30;19.50;99.90
26655;DHT22;14278;50.784;4.630;2023-07-28T05:00:55;19.60;99.90
26655;DHT22;14278;50.784;4.630;2023-07-28T05:03:21;19.70;99.90
26655;DHT22;14278;50.784;4.630;2023-07-28T05:05:48;19.70;99.90
26655;DHT22;14278;50.784;4.630;2023-07-28T05:08:13;19.60;99.90
26655;DHT22;14278;50.784;4.630;2023-07-28T05:10:41;19.60;99.90
26655;DHT22;14278;50.784;4.630;2023-07-28T05:13:08;19.80;99.90
26655;DHT22;14278;50.784;4.630;2023-07-28T05:15:34;19.90;99.90
26655;DHT22;14278;50.784;4.630;2023-07-28T05:18:00;19.80;99.90
26655;DHT22;14278;50.784;4.630;2023-07-28T05:20:26;19.90;99.90
26655;DHT22;14278;50.784;4.630;2023-07-28T05:22:52;20.00;99.90
26655;DHT22;14278;50.784;4.630;2023-07-28T05:25:18;19.90;99.90
26655;DHT22;14278;50.784;4.630;2023-07-28T05:27:43;20.00;99.90
26655;DHT22;14278;50.784;4.630;2023-07-28T05:30:10;20.30;99.90
26655;DHT22;14278;50.784;4.630;2023-07-28T05:32:36;20.00;99.90
26655;DHT22;14278;50.784;4.630;2023-07-28T05:35:01;20.00;99.90
26655;DHT22;14278;50.784;4.630;2023-07-28T05:37:27;19.80;99.90
26655;DHT22;14278;50.784;4.630;2023-07-28T05:39:53;19.90;99.90
26655;DHT22;14278;50.784;4.630;2023-07-28T05:42:19;20.20;99.90
26655;DHT22;14278;50.784;4.630;2023-07-28T05:44:45;20.10;99.90
26655;DHT22;14278;50.784;4.630;2023-07-28T05:47:11;20.00;99.90
26655;DHT22;14278;50.784;4.630;2023-07-28T05:49:37;20.10;99.90
26655;DHT22;14278;50.784;4.630;2023-07-28T05:52:02;20.10;99.90
26655;DHT22;14278;50.784;4.630;2023-07-28T05:54:29;20.00;99.90
26655;DHT22;14278;50.784;4.630;2023-07-28T05:56:55;19.90;99.90
26655;DHT22;14278;50.784;4.630;2023-07-28T05:59:20;20.10;99.90
26655;DHT22;14278;50.784;4.630;2023-07-28T06:01:46;20.30;99.90
26655;DHT22;14278;50.784;4.630;2023-07-28T06:04:12;20.30;99.90
26655;DHT22;14278;50.784;4.630;2023-07-28T06:06:38;20.10;99.90
26655;DHT22;14278;50.784;4.630;2023-07-28T06:09:04;20.20;99.90
26655;DHT22;14278;50.784;4.630;2023-07-28T06:11:30;20.30;99.90
26655;DHT22;14278;50.784;4.630;2023-07-28T06:13:56;20.30;99.90
26655;DHT22;14278;50.784;4.630;2023-07-28T06:16:22;20.30;99.90
26655;DHT22;14278;50.784;4.630;2023-07-28T06:18:49;20.20;99.90
26655;DHT22;14278;50.784;4.630;2023-07-28T06:21:15;20.00;99.90
26655;DHT22;14278;50.784;4.630;2023-07-28T06:23:41;20.00;99.90
26655;DHT22;14278;50.784;4.630;2023-07-28T06:26:07;20.20;99.90
26655;DHT22;14278;50.784;4.630;2023-07-28T06:28:33;20.20;99.90
26655;DHT22;14278;50.784;4.630;2023-07-28T06:30:59;20.10;99.90
26655;DHT22;14278;50.784;4.630;2023-07-28T06:33:27;20.00;99.90
26655;DHT22;14278;50.784;4.630;2023-07-28T06:35:53;20.20;99.90
26655;DHT22;14278;50.784;4.630;2023-07-28T06:38:19;20.30;99.90
26655;DHT22;14278;50.784;4.630;2023-07-28T06:40:44;20.40;99.90
26655;DHT22;14278;50.784;4.630;2023-07-28T06:43:11;20.80;99.90
26655;DHT22;14278;50.784;4.630;2023-07-28T06:45:37;20.90;99.90
26655;DHT22;14278;50.784;4.630;2023-07-28T06:48:03;20.80;99.90
26655;DHT22;14278;50.784;4.630;2023-07-28T06:50:28;20.80;99.90
26655;DHT22;14278;50.784;4.630;2023-07-28T06:52:54;20.70;99.90
26655;DHT22;14278;50.784;4.630;2023-07-28T06:55:21;20.80;99.90
26655;DHT22;14278;50.784;4.630;2023-07-28T06:57:47;21.10;99.90
26655;DHT22;14278;50.784;4.630;2023-07-28T07:00:15;21.10;99.90
26655;DHT22;14278;50.784;4.630;2023-07-28T07:02:41;21.20;99.90
26655;DHT22;14278;50.784;4.630;2023-07-28T07:05:07;21.60;99.90
26655;DHT22;14278;50.784;4.630;2023-07-28T07:07:33;21.30;99.90
26655;DHT22;14278;50.784;4.630;2023-07-28T07:09:59;21.40;99.90
26655;DHT22;14278;50.784;4.630;2023-07-28T07:12:25;21.40;99.90
26655;DHT22;14278;50.784;4.630;2023-07-28T07:14:51;22.20;99.90
26655;DHT22;14278;50.784;4.630;2023-07-28T07:17:17;23.30;99.90
26655;DHT22;14278;50.784;4.630;2023-07-28T07:19:44;23.80;99.90
26655;DHT22;14278;50.784;4.630;2023-07-28T07:22:09;23.60;99.90
26655;DHT22;14278;50.784;4.630;2023-07-28T07:24:35;23.40;99.90
26655;DHT22;14278;50.784;4.630;2023-07-28T07:27:01;23.10;99.90
26655;DHT22;14278;50.784;4.630;2023-07-28T07:29:27;22.70;99.90
26655;DHT22;14278;50.784;4.630;2023-07-28T07:31:53;22.50;99.90
26655;DHT22;14278;50.784;4.630;2023-07-28T07:34:22;22.70;99.90
26655;DHT22;14278;50.784;4.630;2023-07-28T07:36:49;22.90;99.90
26655;DHT22;14278;50.784;4.630;2023-07-28T07:39:14;23.10;99.90
26655;DHT22;14278;50.784;4.630;2023-07-28T07:41:40;23.30;99.90
26655;DHT22;14278;50.784;4.630;2023-07-28T07:44:06;23.30;99.90
26655;DHT22;14278;50.784;4.630;2023-07-28T07:46:32;22.90;99.90
26655;DHT22;14278;50.784;4.630;2023-07-28T07:48:58;22.80;99.90
26655;DHT22;14278;50.784;4.630;2023-07-28T07:51:24;22.60;99.90
26655;DHT22;14278;50.784;4.630;2023-07-28T07:53:50;22.70;99.90
26655;DHT22;14278;50.784;4.630;2023-07-28T07:56:16;23.20;99.90
26655;DHT22;14278;50.784;4.630;2023-07-28T07:58:43;23.40;99.90
26655;DHT22;14278;50.784;4.630;2023-07-28T08:01:09;24.30;99.90
26655;DHT22;14278;50.784;4.630;2023-07-28T08:03:35;25.30;99.90
26655;DHT22;14278;50.784;4.630;2023-07-28T08:06:03;25.50;99.90
26655;DHT22;14278;50.784;4.630;2023-07-28T08:08:30;25.90;99.90
26655;DHT22;14278;50.784;4.630;2023-07-28T08:10:56;25.90;99.90
26655;DHT22;14278;50.784;4.630;2023-07-28T08:13:22;25.80;99.90
26655;DHT22;14278;50.784;4.630;2023-07-28T08:15:49;25.40;99.90
26655;DHT22;14278;50.784;4.630;2023-07-28T08:18:14;25.20;99.90
26655;DHT22;14278;50.784;4.630;2023-07-28T08:20:41;24.90;99.90
26655;DHT22;14278;50.784;4.630;2023-07-28T08:23:07;24.90;99.90
26655;DHT22;14278;50.784;4.630;2023-07-28T08:25:33;24.50;99.90
26655;DHT22;14278;50.784;4.630;2023-07-28T08:28:00;24.50;99.90
26655;DHT22;14278;50.784;4.630;2023-07-28T08:30:26;24.80;99.90
26655;DHT22;14278;50.784;4.630;2023-07-28T08:32:52;25.20;99.90
26655;DHT22;14278;50.784;4.630;2023-07-28T08:35:18;25.20;99.90
26655;DHT22;14278;50.784;4.630;2023-07-28T08:37:44;25.20;99.90
26655;DHT22;14278;50.784;4.630;2023-07-28T08:40:10;24.90;99.90
26655;DHT22;14278;50.784;4.630;2023-07-28T08:42:40;24.90;99.90
26655;DHT22;14278;50.784;4.630;2023-07-28T08:45:07;24.90;99.90
26655;DHT22;14278;50.784;4.630;2023-07-28T08:47:36;24.70;99.90
26655;DHT22;14278;50.784;4.630;2023-07-28T08:50:03;24.50;99.90
26655;DHT22;14278;50.784;4.630;2023-07-28T08:52:29;24.30;99.90
26655;DHT22;14278;50.784;4.630;2023-07-28T08:54:55;24.00;99.90
26655;DHT22;14278;50.784;4.630;2023-07-28T08:57:21;23.90;99.90
26655;DHT22;14278;50.784;4.630;2023-07-28T08:59:47;23.10;99.90
26655;DHT22;14278;50.784;4.630;2023-07-28T09:02:17;23.10;99.90
26655;DHT22;14278;50.784;4.630;2023-07-28T09:04:44;23.00;99.90
26655;DHT22;14278;50.784;4.630;2023-07-28T09:07:10;23.50;99.90
26655;DHT22;14278;50.784;4.630;2023-07-28T09:09:37;23.80;99.90
26655;DHT22;14278;50.784;4.630;2023-07-28T09:12:03;24.10;99.90
26655;DHT22;14278;50.784;4.630;2023-07-28T09:14:36;24.10;99.90
26655;DHT22;14278;50.784;4.630;2023-07-28T09:17:12;24.00;99.90
26655;DHT22;14278;50.784;4.630;2023-07-28T09:19:54;23.80;99.90
26655;DHT22;14278;50.784;4.630;2023-07-28T09:22:21;23.90;99.90
26655;DHT22;14278;50.784;4.630;2023-07-28T09:24:47;23.40;99.90
26655;DHT22;14278;50.784;4.630;2023-07-28T09:27:23;23.50;99.90
26655;DHT22;14278;50.784;4.630;2023-07-28T09:29:53;23.60;99.90
26655;DHT22;14278;50.784;4.630;2023-07-28T09:32:28;23.90;99.90
26655;DHT22;14278;50.784;4.630;2023-07-28T09:35:11;23.70;99.90
26655;DHT22;14278;50.784;4.630;2023-07-28T09:37:40;23.70;99.90
26655;DHT22;14278;50.784;4.630;2023-07-28T09:40:11;24.00;99.90
26655;DHT22;14278;50.784;4.630;2023-07-28T09:42:41;24.40;99.90
26655;DHT22;14278;50.784;4.630;2023-07-28T09:45:08;24.40;99.90
26655;DHT22;14278;50.784;4.630;2023-07-28T09:47:36;24.30;99.90
26655;DHT22;14278;50.784;4.630;2023-07-28T09:50:04;24.30;99.90
26655;DHT22;14278;50.784;4.630;2023-07-28T09:52:51;24.10;99.90
26655;DHT22;14278;50.784;4.630;2023-07-28T09:55:19;23.70;99.90
26655;DHT22;14278;50.784;4.630;2023-07-28T09:57:48;23.50;99.90
26655;DHT22;14278;50.784;4.630;2023-07-28T10:00:17;23.30;99.90
26655;DHT22;14278;50.784;4.630;2023-07-28T10:02:45;22.90;99.90
26655;DHT22;14278;50.784;4.630;2023-07-28T10:05:11;23.10;99.90
26655;DHT22;14278;50.784;4.630;2023-07-28T10:07:39;23.30;99.90
26655;DHT22;14278;50.784;4.630;2023-07-28T10:10:07;23.00;99.90
26655;DHT22;14278;50.784;4.630;2023-07-28T10:12:45;23.10;99.90
26655;DHT22;14278;50.784;4.630;2023-07-28T10:15:17;23.40;99.90
26655;DHT22;14278;50.784;4.630;2023-07-28T10:17:49;23.70;99.90
26655;DHT22;14278;50.784;4.630;2023-07-28T10:20:36;23.90;99.90
26655;DHT22;14278;50.784;4.630;2023-07-28T10:23:11;24.30;99.90
26655;DHT22;14278;50.784;4.630;2023-07-28T10:25:38;24.20;99.90
26655;DHT22;14278;50.784;4.630;2023-07-28T10:28:05;24.30;99.90
26655;DHT22;14278;50.784;4.630;2023-07-28T10:30:38;24.00;99.90
26655;DHT22;14278;50.784;4.630;2023-07-28T10:33:06;23.60;99.90
26655;DHT22;14278;50.784;4.630;2023-07-28T10:35:32;23.80;99.90
26655;DHT22;14278;50.784;4.630;2023-07-28T10:38:31;23.70;99.90
26655;DHT22;14278;50.784;4.630;2023-07-28T10:41:17;23.40;99.90
26655;DHT22;14278;50.784;4.630;2023-07-28T10:43:44;22.50;99.90
26655;DHT22;14278;50.784;4.630;2023-07-28T10:46:13;22.90;99.90
26655;DHT22;14278;50.784;4.630;2023-07-28T10:48:45;23.00;99.90
26655;DHT22;14278;50.784;4.630;2023-07-28T10:51:20;23.50;99.90
26655;DHT22;14278;50.784;4.630;2023-07-28T10:53:50;24.10;99.90
26655;DHT22;14278;50.784;4.630;2023-07-28T10:56:16;24.30;99.90
26655;DHT22;14278;50.784;4.630;2023-07-28T10:58:42;24.50;99.90
26655;DHT22;14278;50.784;4.630;2023-07-28T11:01:08;24.60;99.90
26655;DHT22;14278;50.784;4.630;2023-07-28T11:03:34;24.80;99.90
26655;DHT22;14278;50.784;4.630;2023-07-28T11:06:00;25.20;99.90
26655;DHT22;14278;50.784;4.630;2023-07-28T11:08:26;25.40;99.90
26655;DHT22;14278;50.784;4.630;2023-07-28T11:10:52;24.70;99.90
26655;DHT22;14278;50.784;4.630;2023-07-28T11:13:18;24.90;99.90
26655;DHT22;14278;50.784;4.630;2023-07-28T11:15:44;25.00;99.90
26655;DHT22;14278;50.784;4.630;2023-07-28T11:18:11;25.00;99.90
26655;DHT22;14278;50.784;4.630;2023-07-28T11:20:41;24.80;99.90
26655;DHT22;14278;50.784;4.630;2023-07-28T11:23:07;25.00;99.90
26655;DHT22;14278;50.784;4.630;2023-07-28T11:25:34;25.60;99.90
26655;DHT22;14278;50.784;4.630;2023-07-28T11:28:02;25.50;99.90
26655;DHT22;14278;50.784;4.630;2023-07-28T11:30:32;25.60;99.90
26655;DHT22;14278;50.784;4.630;2023-07-28T11:32:58;25.30;99.90
26655;DHT22;14278;50.784;4.630;2023-07-28T11:35:24;25.50;99.90
26655;DHT22;14278;50.784;4.630;2023-07-28T11:37:52;25.60;99.90
26655;DHT22;14278;50.784;4.630;2023-07-28T11:40:21;25.00;99.90
26655;DHT22;14278;50.784;4.630;2023-07-28T11:42:55;23.80;99.90
26655;DHT22;14278;50.784;4.630;2023-07-28T11:45:22;23.50;99.90
26655;DHT22;14278;50.784;4.630;2023-07-28T11:47:55;24.00;99.90
26655;DHT22;14278;50.784;4.630;2023-07-28T11:50:27;24.10;99.90
26655;DHT22;14278;50.784;4.630;2023-07-28T11:52:53;23.90;99.90
26655;DHT22;14278;50.784;4.630;2023-07-28T11:55:20;23.70;99.90
26655;DHT22;14278;50.784;4.630;2023-07-28T11:57:47;24.10;99.90
26655;DHT22;14278;50.784;4.630;2023-07-28T12:00:14;24.20;99.90
26655;DHT22;14278;50.784;4.630;2023-07-28T12:02:43;24.30;99.90
26655;DHT22;14278;50.784;4.630;2023-07-28T12:05:16;24.40;99.90
26655;DHT22;14278;50.784;4.630;2023-07-28T12:07:52;24.50;99.90
26655;DHT22;14278;50.784;4.630;2023-07-28T12:10:18;24.20;99.90
26655;DHT22;14278;50.784;4.630;2023-07-28T12:12:48;24.20;99.90
26655;DHT22;14278;50.784;4.630;2023-07-28T12:15:29;24.20;99.90
26655;DHT22;14278;50.784;4.630;2023-07-28T12:18:09;24.30;99.90
26655;DHT22;14278;50.784;4.630;2023-07-28T12:20:46;24.90;99.90
26655;DHT22;14278;50.784;4.630;2023-07-28T12:23:13;25.20;99.90
26655;DHT22;14278;50.784;4.630;2023-07-28T12:25:41;25.20;99.90
26655;DHT22;14278;50.784;4.630;2023-07-28T12:28:07;25.70;99.90
26655;DHT22;14278;50.784;4.630;2023-07-28T12:30:34;25.90;99.90
26655;DHT22;14278;50.784;4.630;2023-07-28T12:33:01;26.00;99.90
26655;DHT22;14278;50.784;4.630;2023-07-28T12:35:30;25.70;99.90
26655;DHT22;14278;50.784;4.630;2023-07-28T12:37:58;25.30;99.90
26655;DHT22;14278;50.784;4.630;2023-07-28T12:40:28;25.30;99.90
26655;DHT22;14278;50.784;4.630;2023-07-28T12:42:55;25.30;99.90
26655;DHT22;14278;50.784;4.630;2023-07-28T12:45:22;25.00;99.90
26655;DHT22;14278;50.784;4.630;2023-07-28T12:47:48;25.30;99.90
26655;DHT22;14278;50.784;4.630;2023-07-28T12:50:14;25.70;99.90
26655;DHT22;14278;50.784;4.630;2023-07-28T12:52:40;25.60;99.90
26655;DHT22;14278;50.784;4.630;2023-07-28T12:55:07;25.80;99.90
26655;DHT22;14278;50.784;4.630;2023-07-28T12:57:34;25.70;99.90
26655;DHT22;14278;50.784;4.630;2023-07-28T12:59:59;25.30;99.90
26655;DHT22;14278;50.784;4.630;2023-07-28T13:02:25;25.50;99.90
26655;DHT22;14278;50.784;4.630;2023-07-28T13:04:51;25.40;99.90
26655;DHT22;14278;50.784;4.630;2023-07-28T13:07:17;25.40;99.90
26655;DHT22;14278;50.784;4.630;2023-07-28T13:09:44;25.60;99.90
26655;DHT22;14278;50.784;4.630;2023-07-28T13:12:11;25.70;99.90
26655;DHT22;14278;50.784;4.630;2023-07-28T13:14:36;25.60;99.90
26655;DHT22;14278;50.784;4.630;2023-07-28T13:17:03;25.70;99.90
26655;DHT22;14278;50.784;4.630;2023-07-28T13:19:28;25.80;99.90
26655;DHT22;14278;50.784;4.630;2023-07-28T13:21:55;26.20;99.90
26655;DHT22;14278;50.784;4.630;2023-07-28T13:24:21;26.60;99.90
26655;DHT22;14278;50.784;4.630;2023-07-28T13:26:46;26.60;99.90
26655;DHT22;14278;50.784;4.630;2023-07-28T13:29:13;26.20;99.90
26655;DHT22;14278;50.784;4.630;2023-07-28T13:31:38;26.00;99.90
26655;DHT22;14278;50.784;4.630;2023-07-28T13:34:05;26.30;99.90
26655;DHT22;14278;50.784;4.630;2023-07-28T13:36:30;26.20;99.90
26655;DHT22;14278;50.784;4.630;2023-07-28T13:38:56;26.20;99.90
26655;DHT22;14278;50.784;4.630;2023-07-28T13:41:22;26.40;99.90
26655;DHT22;14278;50.784;4.630;2023-07-28T13:43:48;25.90;99.90
26655;DHT22;14278;50.784;4.630;2023-07-28T13:46:15;25.50;99.90
26655;DHT22;14278;50.784;4.630;2023-07-28T13:48:40;25.40;99.90
26655;DHT22;14278;50.784;4.630;2023-07-28T13:51:06;25.70;99.90
26655;DHT22;14278;50.784;4.630;2023-07-28T13:53:33;26.30;99.90
26655;DHT22;14278;50.784;4.630;2023-07-28T13:55:59;25.80;99.90
26655;DHT22;14278;50.784;4.630;2023-07-28T13:58:25;26.20;99.90
26655;DHT22;14278;50.784;4.630;2023-07-28T14:00:51;26.60;99.90
26655;DHT22;14278;50.784;4.630;2023-07-28T14:03:16;26.40;99.90
26655;DHT22;14278;50.784;4.630;2023-07-28T14:05:43;26.00;99.90
26655;DHT22;14278;50.784;4.630;2023-07-28T14:08:09;26.20;99.90
26655;DHT22;14278;50.784;4.630;2023-07-28T14:10:36;26.30;99.90
26655;DHT22;14278;50.784;4.630;2023-07-28T14:13:03;26.30;99.90
26655;DHT22;14278;50.784;4.630;2023-07-28T14:15:29;26.20;99.90
26655;DHT22;14278;50.784;4.630;2023-07-28T14:17:55;25.80;99.90
26655;DHT22;14278;50.784;4.630;2023-07-28T14:20:21;26.30;99.90
26655;DHT22;14278;50.784;4.630;2023-07-28T14:22:47;26.10;99.90
26655;DHT22;14278;50.784;4.630;2023-07-28T14:25:13;26.10;99.90
26655;DHT22;14278;50.784;4.630;2023-07-28T14:27:39;26.10;99.90
26655;DHT22;14278;50.784;4.630;2023-07-28T14:30:06;26.20;99.90
26655;DHT22;14278;50.784;4.630;2023-07-28T14:32:32;26.40;99.90
26655;DHT22;14278;50.784;4.630;2023-07-28T14:34:58;26.70;99.90
26655;DHT22;14278;50.784;4.630;2023-07-28T14:37:24;26.90;99.90
26655;DHT22;14278;50.784;4.630;2023-07-28T14:39:49;27.10;99.90
26655;DHT22;14278;50.784;4.630;2023-07-28T14:42:16;26.90;99.90
26655;DHT22;14278;50.784;4.630;2023-07-28T14:44:42;26.90;99.90
26655;DHT22;14278;50.784;4.630;2023-07-28T14:47:08;26.80;99.90
26655;DHT22;14278;50.784;4.630;2023-07-28T14:49:34;26.50;99.90
26655;DHT22;14278;50.784;4.630;2023-07-28T14:51:59;26.60;99.90
26655;DHT22;14278;50.784;4.630;2023-07-28T14:54:27;26.60;99.90
26655;DHT22;14278;50.784;4.630;2023-07-28T14:56:53;26.20;99.90
26655;DHT22;14278;50.784;4.630;2023-07-28T14:59:19;25.70;99.90
26655;DHT22;14278;50.784;4.630;2023-07-28T15:01:45;25.70;99.90
26655;DHT22;14278;50.784;4.630;2023-07-28T15:04:12;25.70;99.90
26655;DHT22;14278;50.784;4.630;2023-07-28T15:06:39;25.70;99.90
26655;DHT22;14278;50.784;4.630;2023-07-28T15:09:05;25.70;99.90
26655;DHT22;14278;50.784;4.630;2023-07-28T15:11:32;25.80;99.90
26655;DHT22;14278;50.784;4.630;2023-07-28T15:13:58;26.00;99.90
26655;DHT22;14278;50.784;4.630;2023-07-28T15:16:23;26.10;99.90
26655;DHT22;14278;50.784;4.630;2023-07-28T15:18:50;25.80;99.90
26655;DHT22;14278;50.784;4.630;2023-07-28T15:21:15;25.50;99.90
26655;DHT22;14278;50.784;4.630;2023-07-28T15:23:42;25.80;99.90
26655;DHT22;14278;50.784;4.630;2023-07-28T15:26:08;25.70;99.90
26655;DHT22;14278;50.784;4.630;2023-07-28T15:28:34;26.00;99.90
26655;DHT22;14278;50.784;4.630;2023-07-28T15:31:00;26.60;99.90
26655;DHT22;14278;50.784;4.630;2023-07-28T15:33:26;26.80;99.90